createdAt,value
2023-08-01T00:01:14.375Z,94.4
2023-08-01T00:02:55.092Z,94.4
2023-08-01T00:04:35.708Z,94.2
2023-08-01T00:06:16.229Z,94.3
2023-08-01T00:07:56.689Z,94.3
2023-08-01T00:09:37.148Z,94.2
2023-08-01T00:11:17.616Z,94.3
2023-08-01T00:12:58.047Z,94.1
2023-08-01T00:14:38.546Z,93.9
2023-08-01T00:16:19.051Z,94.1
2023-08-01T00:17:59.592Z,94
2023-08-01T00:19:40.090Z,94.1
2023-08-01T00:21:20.532Z,94.2
2023-08-01T00:23:00.990Z,94.2
2023-08-01T00:24:41.451Z,94.3
2023-08-01T00:26:21.903Z,94.1
2023-08-01T00:28:02.453Z,94
2023-08-01T00:29:43.042Z,93.9
2023-08-01T00:31:23.537Z,94.2
2023-08-01T00:33:04.117Z,93.9
2023-08-01T00:34:44.587Z,93.9
2023-08-01T00:36:25.484Z,94.2
2023-08-01T00:38:06.040Z,94.1
2023-08-01T00:39:46.464Z,93.8
2023-08-01T00:41:26.929Z,93.8
2023-08-01T00:43:07.441Z,94.2
2023-08-01T00:44:47.961Z,94.3
2023-08-01T00:46:28.654Z,94.3
2023-08-01T00:48:09.481Z,94.3
2023-08-01T00:49:50.186Z,94.2
2023-08-01T00:51:30.707Z,94.1
2023-08-01T00:53:11.152Z,94.1
2023-08-01T00:54:51.593Z,94.1
2023-08-01T00:56:32.079Z,94.1
2023-08-01T00:58:12.504Z,94.1
2023-08-01T01:01:50.369Z,94.1
2023-08-01T01:03:30.991Z,93.9
2023-08-01T01:05:11.530Z,93.8
2023-08-01T01:06:52.261Z,94.1
2023-08-01T01:08:33.474Z,93.9
2023-08-01T01:10:13.942Z,93.8
2023-08-01T01:11:54.399Z,94.3
2023-08-01T01:13:34.851Z,94
2023-08-01T01:15:15.556Z,94
2023-08-01T01:16:56.362Z,94.1
2023-08-01T01:18:36.916Z,94.1
2023-08-01T01:20:17.409Z,94
2023-08-01T01:21:57.936Z,94
2023-08-01T01:23:38.396Z,94
2023-08-01T01:25:18.860Z,93.8
2023-08-01T01:26:59.304Z,93.8
2023-08-01T01:28:40.063Z,93.9
2023-08-01T01:30:20.650Z,93.9
2023-08-01T01:32:01.084Z,93.9
2023-08-01T01:33:41.547Z,94.1
2023-08-01T01:35:22.007Z,94
2023-08-01T01:37:02.447Z,94
2023-08-01T01:38:42.919Z,94.1
2023-08-01T01:40:23.357Z,93.9
2023-08-01T01:42:03.847Z,93.9
2023-08-01T01:43:44.431Z,94
2023-08-01T01:45:25.055Z,93.9
2023-08-01T01:47:05.485Z,93.7
2023-08-01T01:48:45.945Z,93.9
2023-08-01T01:50:26.399Z,94
2023-08-01T01:52:06.857Z,93.9
2023-08-01T01:53:47.329Z,93.8
2023-08-01T01:55:27.997Z,94
2023-08-01T01:57:08.437Z,94
2023-08-01T01:58:48.949Z,93.8
2023-08-01T02:00:29.755Z,93.9
2023-08-01T02:03:28.649Z,93.8
2023-08-01T02:05:09.288Z,93.8
2023-08-01T02:06:49.757Z,93.7
2023-08-01T02:08:30.191Z,93.7
2023-08-01T02:10:10.653Z,93.7
2023-08-01T02:11:51.125Z,93.6
2023-08-01T02:13:35.237Z,93.7
2023-08-01T02:15:15.932Z,93.8
2023-08-01T02:16:56.457Z,93.8
2023-08-01T02:18:36.923Z,93.8
2023-08-01T02:20:17.384Z,93.8
2023-08-01T02:21:57.858Z,93.9
2023-08-01T02:23:38.283Z,93.9
2023-08-01T02:25:18.768Z,93.8
2023-08-01T02:26:59.194Z,93.7
2023-08-01T02:28:39.736Z,93.9
2023-08-01T02:30:20.217Z,93.7
2023-08-01T02:32:00.805Z,93.7
2023-08-01T02:33:41.599Z,93.8
2023-08-01T02:35:22.196Z,93.6
2023-08-01T02:37:02.652Z,93.8
2023-08-01T02:38:43.208Z,93.8
2023-08-01T02:40:23.660Z,93.9
2023-08-01T02:42:04.122Z,94
2023-08-01T02:43:44.596Z,93.8
2023-08-01T02:45:25.037Z,94.1
2023-08-01T02:47:05.635Z,94.1
2023-08-01T02:48:46.067Z,94.1
2023-08-01T02:50:26.594Z,94.1
2023-08-01T02:52:07.121Z,94
2023-08-01T02:53:47.623Z,93.7
2023-08-01T02:55:28.068Z,93.8
2023-08-01T02:57:08.522Z,93.8
2023-08-01T02:58:48.990Z,93.6
2023-08-01T03:00:29.432Z,93.5
2023-08-01T03:02:09.921Z,93.6
2023-08-01T03:03:50.493Z,93.7
2023-08-01T03:05:31.221Z,93.6
2023-08-01T03:07:11.691Z,93.8
2023-08-01T03:08:52.137Z,93.7
2023-08-01T03:10:38.375Z,93.8
2023-08-01T03:12:18.892Z,93.8
2023-08-01T03:13:59.526Z,93.7
2023-08-01T03:15:40.084Z,93.9
2023-08-01T03:17:20.707Z,94
2023-08-01T03:19:01.303Z,93.9
2023-08-01T03:20:41.762Z,94
2023-08-01T03:22:22.322Z,94.1
2023-08-01T03:24:02.773Z,93.9
2023-08-01T03:25:43.227Z,94.1
2023-08-01T03:27:23.688Z,94.1
2023-08-01T03:29:04.618Z,93.9
2023-08-01T03:30:45.127Z,93.9
2023-08-01T03:32:25.910Z,94
2023-08-01T03:34:06.561Z,93.9
2023-08-01T03:35:47.104Z,93.7
2023-08-01T03:37:27.556Z,93.7
2023-08-01T03:39:08.012Z,94
2023-08-01T03:40:48.465Z,94
2023-08-01T03:42:28.927Z,94
2023-08-01T03:44:09.376Z,93.9
2023-08-01T03:45:49.897Z,94
2023-08-01T03:47:30.415Z,93.8
2023-08-01T03:49:10.946Z,94.1
2023-08-01T03:50:51.398Z,94.2
2023-08-01T03:54:29.321Z,94.1
2023-08-01T03:56:09.812Z,94.2
2023-08-01T03:57:50.266Z,94
2023-08-01T03:59:30.746Z,94.1
2023-08-01T04:01:11.333Z,94.1
2023-08-01T04:02:52.027Z,93.7
2023-08-01T04:04:32.687Z,94
2023-08-01T04:06:13.152Z,94
2023-08-01T04:07:53.602Z,94.3
2023-08-01T04:09:34.063Z,94.2
2023-08-01T04:11:14.525Z,94
2023-08-01T04:12:54.968Z,93.8
2023-08-01T04:14:35.434Z,93.7
2023-08-01T04:16:15.975Z,93.9
2023-08-01T04:17:56.562Z,93.9
2023-08-01T04:19:37.118Z,93.8
2023-08-01T04:21:17.554Z,93.9
2023-08-01T04:22:58.025Z,93.8
2023-08-01T04:24:38.476Z,93.6
2023-08-01T04:26:18.987Z,93.6
2023-08-01T04:27:59.568Z,93.4
2023-08-01T04:29:40.041Z,94.1
2023-08-01T04:31:20.563Z,93.6
2023-08-01T04:33:01.232Z,93.6
2023-08-01T04:34:41.812Z,93.5
2023-08-01T04:36:22.273Z,93.6
2023-08-01T04:38:02.884Z,93.5
2023-08-01T04:39:43.381Z,93.5
2023-08-01T04:41:23.836Z,93.3
2023-08-01T04:43:04.303Z,93.5
2023-08-01T04:44:44.764Z,93.7
2023-08-01T04:46:25.289Z,93.6
2023-08-01T04:48:05.910Z,93.4
2023-08-01T04:49:46.328Z,93.3
2023-08-01T04:51:26.791Z,93.7
2023-08-01T04:53:07.240Z,93.7
2023-08-01T04:54:47.690Z,93.6
2023-08-01T04:56:28.277Z,93.6
2023-08-01T04:58:12.004Z,93.7
2023-08-01T04:59:52.546Z,93.5
2023-08-01T05:01:33.877Z,93.5
2023-08-01T05:03:14.976Z,93.5
2023-08-01T05:04:55.644Z,93.6
2023-08-01T05:06:36.195Z,93.6
2023-08-01T05:08:16.709Z,93.5
2023-08-01T05:09:57.242Z,93.6
2023-08-01T05:11:37.672Z,93.6
2023-08-01T05:13:18.128Z,93.6
2023-08-01T05:14:58.621Z,93.5
2023-08-01T05:16:39.772Z,93.7
2023-08-01T05:18:20.898Z,93.9
2023-08-01T05:20:01.420Z,93.8
2023-08-01T05:21:41.948Z,93.5
2023-08-01T05:23:22.403Z,93.4
2023-08-01T05:25:02.867Z,93.9
2023-08-01T05:26:43.894Z,93.5
2023-08-01T05:28:24.388Z,93.6
2023-08-01T05:30:04.960Z,93.4
2023-08-01T05:31:45.492Z,93.3
2023-08-01T05:33:26.234Z,93.2
2023-08-01T05:35:06.794Z,93.2
2023-08-01T05:36:47.276Z,93.2
2023-08-01T05:38:27.748Z,93.2
2023-08-01T05:40:08.349Z,93.4
2023-08-01T05:43:46.360Z,93.2
2023-08-01T05:45:26.863Z,93.5
2023-08-01T05:47:07.378Z,93.4
2023-08-01T05:48:48.058Z,93.2
2023-08-01T05:50:28.541Z,93.3
2023-08-01T05:52:09.002Z,93.1
2023-08-01T05:53:49.460Z,93.4
2023-08-01T05:55:29.923Z,93.3
2023-08-01T05:57:10.378Z,93.8
2023-08-01T05:58:50.826Z,93.5
2023-08-01T06:00:31.267Z,93.3
2023-08-01T06:02:11.786Z,93.5
2023-08-01T06:03:52.463Z,93.3
2023-08-01T06:05:33.045Z,93.9
2023-08-01T06:07:13.535Z,93.2
2023-08-01T06:08:54.067Z,93.9
2023-08-01T06:10:34.519Z,93.5
2023-08-01T06:12:15.000Z,93.8
2023-08-01T06:13:55.429Z,93.6
2023-08-01T06:15:35.897Z,94.3
2023-08-01T06:17:16.442Z,94.1
2023-08-01T06:18:57.130Z,94.4
2023-08-01T06:20:37.552Z,94.2
2023-08-01T06:22:18.026Z,94.3
2023-08-01T06:23:58.465Z,94.6
2023-08-01T06:25:38.943Z,94.4
2023-08-01T06:27:19.377Z,94.6
2023-08-01T06:28:59.903Z,94.2
2023-08-01T06:30:40.450Z,94.1
2023-08-01T06:32:21.118Z,93.7
2023-08-01T06:34:01.697Z,93.7
2023-08-01T06:35:42.189Z,93.3
2023-08-01T06:37:22.629Z,93.4
2023-08-01T06:39:03.094Z,93.6
2023-08-01T06:40:43.549Z,93.7
2023-08-01T06:42:23.998Z,93.2
2023-08-01T06:44:04.462Z,93.1
2023-08-01T06:45:45.037Z,93
2023-08-01T06:47:25.743Z,93.1
2023-08-01T06:49:06.424Z,93
2023-08-01T06:50:46.950Z,93.1
2023-08-01T06:52:27.446Z,93
2023-08-01T06:54:08.038Z,93.2
2023-08-01T06:55:48.558Z,92.8
2023-08-01T06:57:29.023Z,93.1
2023-08-01T06:59:09.472Z,93.1
2023-08-01T07:00:49.930Z,93
2023-08-01T07:02:30.477Z,93.2
2023-08-01T07:04:11.198Z,93.2
2023-08-01T07:05:51.869Z,93.2
2023-08-01T07:07:33.901Z,93.2
2023-08-01T07:09:14.369Z,93.4
2023-08-01T07:10:54.809Z,93.3
2023-08-01T07:12:35.289Z,93.3
2023-08-01T07:14:15.833Z,93.7
2023-08-01T07:15:56.414Z,93.4
2023-08-01T07:17:37.015Z,93.2
2023-08-01T07:19:17.710Z,93.4
2023-08-01T07:20:58.185Z,93.4
2023-08-01T07:22:38.733Z,93.2
2023-08-01T07:24:19.185Z,93
2023-08-01T07:25:59.630Z,93.3
2023-08-01T07:27:40.130Z,93.5
2023-08-01T07:29:20.651Z,93.6
2023-08-01T07:31:18.197Z,93.3
2023-08-01T07:32:59.191Z,93.8
2023-08-01T07:34:39.920Z,94.1
2023-08-01T07:36:20.449Z,94.7
2023-08-01T07:38:01.429Z,94.6
2023-08-01T07:39:41.919Z,94.4
2023-08-01T07:41:22.382Z,94.7
2023-08-01T07:43:02.831Z,94.6
2023-08-01T07:44:43.288Z,94.3
2023-08-01T07:46:23.939Z,94.5
2023-08-01T07:48:04.894Z,94.7
2023-08-01T07:49:45.502Z,94.9
2023-08-01T07:51:25.991Z,94.9
2023-08-01T07:53:06.481Z,94.8
2023-08-01T07:54:47.009Z,94.3
2023-08-01T07:56:27.600Z,94.6
2023-08-01T07:58:08.058Z,94.1
2023-08-01T07:59:48.528Z,93.9
2023-08-01T08:01:29.070Z,93.8
2023-08-01T08:03:09.922Z,93.6
2023-08-01T08:04:50.634Z,93.7
2023-08-01T08:06:31.047Z,94.2
2023-08-01T08:08:11.602Z,93.9
2023-08-01T08:09:52.074Z,93.3
2023-08-01T08:11:32.674Z,93.6
2023-08-01T08:13:13.320Z,93.6
2023-08-01T08:14:53.845Z,93.9
2023-08-01T08:16:34.426Z,93.2
2023-08-01T08:18:15.255Z,92.9
2023-08-01T08:19:58.735Z,92.7
2023-08-01T08:21:39.244Z,93.4
2023-08-01T08:23:19.730Z,93.3
2023-08-01T08:25:00.283Z,93.6
2023-08-01T08:26:41.644Z,94
2023-08-01T08:28:22.924Z,94.3
2023-08-01T08:30:03.373Z,95
2023-08-01T08:31:44.024Z,94.4
2023-08-01T08:33:24.735Z,94.4
2023-08-01T08:35:05.268Z,94.4
2023-08-01T08:36:45.816Z,94.5
2023-08-01T08:38:26.259Z,92.3
2023-08-01T08:40:06.775Z,93
2023-08-01T08:41:47.301Z,92.9
2023-08-01T08:43:27.732Z,92.5
2023-08-01T08:45:08.180Z,92.9
2023-08-01T08:46:48.672Z,93.3
2023-08-01T08:48:29.406Z,92.8
2023-08-01T08:50:10.025Z,93.6
2023-08-01T08:51:50.544Z,93.3
2023-08-01T08:53:30.980Z,94.4
2023-08-01T08:55:11.440Z,94.2
2023-08-01T08:56:51.912Z,94.7
2023-08-01T08:58:32.558Z,94.3
2023-08-01T09:00:13.223Z,93.7
2023-08-01T09:01:53.670Z,93.9
2023-08-01T09:03:34.181Z,94
2023-08-01T09:05:14.780Z,94
2023-08-01T09:06:55.339Z,94.9
2023-08-01T09:08:35.792Z,94.2
2023-08-01T09:10:16.266Z,94.3
2023-08-01T09:11:56.912Z,94.3
2023-08-01T09:13:37.364Z,94.4
2023-08-01T09:15:17.824Z,93.8
2023-08-01T09:16:58.374Z,93.9
2023-08-01T09:18:38.832Z,93.7
2023-08-01T09:22:16.659Z,93.7
2023-08-01T09:23:57.236Z,93.5
2023-08-01T09:25:37.772Z,93.4
2023-08-01T09:27:18.219Z,93.4
2023-08-01T09:28:58.704Z,93.4
2023-08-01T09:30:39.220Z,93.3
2023-08-01T09:32:19.701Z,93.4
2023-08-01T09:34:00.410Z,93.7
2023-08-01T09:35:41.036Z,93.6
2023-08-01T09:37:24.217Z,93.7
2023-08-01T09:39:04.698Z,93.6
2023-08-01T09:40:45.157Z,93.9
2023-08-01T09:42:25.631Z,93.4
2023-08-01T09:44:06.170Z,93.3
2023-08-01T09:45:46.613Z,92.9
2023-08-01T09:47:27.138Z,93.1
2023-08-01T09:49:07.684Z,93.6
2023-08-01T09:50:48.210Z,93.7
2023-08-01T09:52:28.673Z,93.1
2023-08-01T09:54:09.090Z,93.1
2023-08-01T09:55:49.553Z,93.6
2023-08-01T09:57:30.021Z,93.3
2023-08-01T09:59:10.461Z,93.2
2023-08-01T10:00:50.910Z,93.4
2023-08-01T10:02:31.589Z,93.4
2023-08-01T10:04:12.236Z,93.6
2023-08-01T10:05:52.817Z,93.7
2023-08-01T10:07:33.272Z,93.8
2023-08-01T10:09:13.765Z,93.9
2023-08-01T10:10:54.283Z,94.1
2023-08-01T10:12:34.828Z,94.1
2023-08-01T10:14:15.529Z,94.2
2023-08-01T10:15:56.102Z,94
2023-08-01T10:17:36.677Z,94.1
2023-08-01T10:19:17.330Z,94.1
2023-08-01T10:20:57.943Z,93.9
2023-08-01T10:22:38.372Z,94.6
2023-08-01T10:24:18.867Z,93.9
2023-08-01T10:25:59.409Z,94.2
2023-08-01T10:27:40.043Z,94.3
2023-08-01T10:29:20.938Z,94.2
2023-08-01T10:31:01.703Z,94.2
2023-08-01T10:32:42.337Z,93.9
2023-08-01T10:34:23.057Z,94.3
2023-08-01T10:36:03.971Z,94.3
2023-08-01T10:37:44.443Z,94.4
2023-08-01T10:39:25.162Z,94.5
2023-08-01T10:41:05.806Z,94.2
2023-08-01T10:42:46.430Z,94.1
2023-08-01T10:44:27.146Z,94.3
2023-08-01T10:46:08.363Z,94.8
2023-08-01T10:47:49.170Z,94.8
2023-08-01T10:49:29.815Z,94.1
2023-08-01T10:51:10.478Z,94.7
2023-08-01T10:52:50.995Z,94.3
2023-08-01T10:54:31.463Z,94.2
2023-08-01T10:56:12.016Z,94.3
2023-08-01T10:57:52.578Z,94.3
2023-08-01T10:59:33.017Z,94.3
2023-08-01T11:01:13.635Z,94.5
2023-08-01T11:02:54.452Z,94.7
2023-08-01T11:04:35.151Z,94.6
2023-08-01T11:06:15.815Z,95.2
2023-08-01T11:07:56.335Z,94.5
2023-08-01T11:09:53.685Z,95.1
2023-08-01T11:11:34.118Z,95.1
2023-08-01T11:13:14.584Z,95.1
2023-08-01T11:14:55.034Z,94.9
2023-08-01T11:16:35.554Z,94.7
2023-08-01T11:18:16.412Z,94.8
2023-08-01T11:19:57.086Z,94.7
2023-08-01T11:21:37.676Z,94.8
2023-08-01T11:23:18.233Z,95
2023-08-01T11:24:58.687Z,94.9
2023-08-01T11:26:40.465Z,95
2023-08-01T11:28:21.424Z,94.6
2023-08-01T11:30:01.926Z,94.7
2023-08-01T11:31:42.805Z,95
2023-08-01T11:33:23.430Z,94.5
2023-08-01T11:35:03.965Z,95
2023-08-01T11:36:44.863Z,94.7
2023-08-01T11:38:25.448Z,94.9
2023-08-01T11:40:06.188Z,94.8
2023-08-01T11:41:46.640Z,94.6
2023-08-01T11:43:27.192Z,94.6
2023-08-01T11:45:07.671Z,94.5
2023-08-01T11:46:48.209Z,94.4
2023-08-01T11:48:28.674Z,94.6
2023-08-01T11:50:09.168Z,94.6
2023-08-01T11:51:49.687Z,93.9
2023-08-01T11:53:30.294Z,93
2023-08-01T11:55:10.904Z,93.1
2023-08-01T11:56:51.439Z,93
2023-08-01T11:58:31.925Z,93.2
2023-08-01T12:00:12.505Z,92.8
2023-08-01T12:01:53.023Z,93.6
2023-08-01T12:03:33.874Z,93.8
2023-08-01T12:05:14.826Z,94.3
2023-08-01T12:06:55.735Z,94.1
2023-08-01T12:08:36.188Z,94.3
2023-08-01T12:10:16.728Z,94.5
2023-08-01T12:11:57.185Z,94.5
2023-08-01T12:13:37.649Z,94.5
2023-08-01T12:15:18.097Z,94.5
2023-08-01T12:16:58.548Z,94.3
2023-08-01T12:19:01.706Z,94.3
2023-08-01T12:20:42.294Z,94.3
2023-08-01T12:22:22.979Z,94.1
2023-08-01T12:24:03.422Z,94
2023-08-01T12:25:43.865Z,94.1
2023-08-01T12:27:27.439Z,93.9
2023-08-01T12:29:08.225Z,93.9
2023-08-01T12:30:48.772Z,93.9
2023-08-01T12:32:29.365Z,94
2023-08-01T12:34:09.932Z,94.1
2023-08-01T12:35:50.552Z,94.1
2023-08-01T12:37:31.140Z,94
2023-08-01T12:39:11.632Z,93.9
2023-08-01T12:40:52.119Z,93.7
2023-08-01T12:42:32.845Z,93.8
2023-08-01T12:44:13.293Z,93.8
2023-08-01T12:45:56.774Z,93.7
2023-08-01T12:47:37.342Z,93.7
2023-08-01T12:49:17.826Z,93.9
2023-08-01T12:51:01.159Z,93.7
2023-08-01T12:52:43.395Z,94
2023-08-01T12:54:24.527Z,93.9
2023-08-01T12:56:05.109Z,93.7
2023-08-01T12:57:45.750Z,93.7
2023-08-01T12:59:26.185Z,93.8
2023-08-01T12:59:43.103Z,94
2023-08-01T13:01:23.602Z,94
2023-08-01T13:03:04.114Z,93.8
2023-08-01T13:04:44.572Z,93.9
2023-08-01T13:06:25.288Z,93.9
2023-08-01T13:08:05.948Z,94.1
2023-08-01T13:09:46.438Z,94
2023-08-01T13:11:27.020Z,94
2023-08-01T13:13:07.472Z,93.9
2023-08-01T13:14:47.927Z,93.8
2023-08-01T13:16:28.455Z,93.7
2023-08-01T13:18:09.506Z,93.6
2023-08-01T13:19:50.043Z,93.7
2023-08-01T13:21:30.612Z,93.5
2023-08-01T13:23:11.451Z,93.8
2023-08-01T13:24:52.025Z,93.6
2023-08-01T13:26:33.835Z,93.3
2023-08-01T13:28:14.315Z,93.3
2023-08-01T13:29:54.785Z,93.7
2023-08-01T13:31:35.564Z,93.5
2023-08-01T13:33:16.092Z,93.7
2023-08-01T13:34:56.575Z,93.4
2023-08-01T13:36:37.165Z,91.6
2023-08-01T13:38:18.259Z,89.1
2023-08-01T13:39:58.742Z,89.4
2023-08-01T13:41:39.306Z,91.3
2023-08-01T13:43:19.906Z,92.1
2023-08-01T13:45:00.429Z,92.6
2023-08-01T13:46:41.129Z,92.8
2023-08-01T13:48:21.758Z,93
2023-08-01T13:50:02.559Z,93.3
2023-08-01T13:51:43.151Z,93.4
2023-08-01T13:53:23.641Z,93.3
2023-08-01T13:55:04.232Z,93.2
2023-08-01T13:56:45.167Z,93.4
2023-08-01T13:58:26.407Z,93.5
2023-08-01T14:00:14.346Z,93.5
2023-08-01T14:03:21.483Z,93.6
2023-08-01T14:05:02.232Z,93.7
2023-08-01T14:06:43.323Z,93.4
2023-08-01T14:08:24.726Z,93.6
2023-08-01T14:10:05.241Z,93.7
2023-08-01T14:11:45.682Z,93.7
2023-08-01T14:13:26.204Z,93.9
2023-08-01T14:15:06.707Z,93.9
2023-08-01T14:16:47.426Z,93.9
2023-08-01T14:18:27.921Z,93.8
2023-08-01T14:20:08.379Z,93.8
2023-08-01T14:21:48.820Z,94.2
2023-08-01T14:23:29.319Z,94.2
2023-08-01T14:25:10.034Z,94.3
2023-08-01T14:26:50.490Z,94.2
2023-08-01T14:28:30.949Z,94.1
2023-08-01T14:30:11.402Z,94.3
2023-08-01T14:31:51.932Z,94.3
2023-08-01T14:33:32.428Z,94.1
2023-08-01T14:35:12.877Z,94.3
2023-08-01T14:36:53.343Z,94.2
2023-08-01T14:38:33.794Z,94.2
2023-08-01T14:40:14.302Z,94.2
2023-08-01T14:42:06.534Z,94.2
2023-08-01T14:43:47.035Z,94.3
2023-08-01T14:45:27.486Z,94.3
2023-08-01T14:47:07.948Z,94.4
2023-08-01T14:48:48.395Z,94.3
2023-08-01T14:50:28.884Z,94.3
2023-08-01T14:52:09.456Z,94.4
2023-08-01T14:53:49.920Z,94.3
2023-08-01T14:55:30.483Z,94.1
2023-08-01T14:57:11.063Z,94.1
2023-08-01T14:58:51.550Z,94.4
2023-08-01T15:00:32.022Z,94.3
2023-08-01T15:02:13.128Z,94.1
2023-08-01T15:03:53.613Z,94.4
2023-08-01T15:05:34.084Z,94.2
2023-08-01T15:07:14.629Z,94.3
2023-08-01T15:08:55.389Z,94.3
2023-08-01T15:10:35.886Z,94.7
2023-08-01T15:12:16.298Z,94.4
2023-08-01T15:13:56.773Z,94.2
2023-08-01T15:15:37.219Z,94.1
2023-08-01T15:17:17.782Z,94.3
2023-08-01T15:18:58.256Z,94.2
2023-08-01T15:20:38.792Z,94
2023-08-01T15:22:19.247Z,94.3
2023-08-01T15:23:59.712Z,94.2
2023-08-01T15:25:40.293Z,94.3
2023-08-01T15:27:20.716Z,94.1
2023-08-01T15:29:01.179Z,94.1
2023-08-01T15:30:41.736Z,94.5
2023-08-01T15:32:22.175Z,94.5
2023-08-01T15:34:02.662Z,94.7
2023-08-01T15:35:43.094Z,94.2
2023-08-01T15:37:23.584Z,94.9
2023-08-01T15:39:04.120Z,94.4
2023-08-01T15:40:44.622Z,94.3
2023-08-01T15:42:25.034Z,94.4
2023-08-01T15:44:05.481Z,94.3
2023-08-01T15:45:46.018Z,94.2
2023-08-01T15:47:26.534Z,94.6
2023-08-01T15:49:07.149Z,94.5
2023-08-01T15:50:47.605Z,94.4
2023-08-01T15:52:28.059Z,94.4
2023-08-01T15:54:25.417Z,94.3
2023-08-01T15:56:06.072Z,94.4
2023-08-01T15:57:46.547Z,94.4
2023-08-01T15:59:27.065Z,94.5
2023-08-01T16:01:07.758Z,94.5
2023-08-01T16:02:48.625Z,94.5
2023-08-01T16:04:29.278Z,94.8
2023-08-01T16:06:09.820Z,94.4
2023-08-01T16:07:50.405Z,94.1
2023-08-01T16:09:30.850Z,94.3
2023-08-01T16:11:11.406Z,94.3
2023-08-01T16:12:51.866Z,94.1
2023-08-01T16:14:42.170Z,94.3
2023-08-01T16:16:22.710Z,94.1
2023-08-01T16:18:03.489Z,94.4
2023-08-01T16:19:43.932Z,94.8
2023-08-01T16:21:24.503Z,94.4
2023-08-01T16:23:04.949Z,94.3
2023-08-01T16:24:45.451Z,94.4
2023-08-01T16:26:26.075Z,94.3
2023-08-01T16:28:06.505Z,94.7
2023-08-01T16:29:46.972Z,94.3
2023-08-01T16:31:27.426Z,94.7
2023-08-01T16:33:08.011Z,94.8
2023-08-01T16:34:48.542Z,94.4
2023-08-01T16:36:29.007Z,94.6
2023-08-01T16:38:09.441Z,94.3
2023-08-01T16:39:49.963Z,94.7
2023-08-01T16:41:30.502Z,93.5
2023-08-01T16:43:10.908Z,93.9
2023-08-01T16:44:51.380Z,93.8
2023-08-01T16:46:31.933Z,94.7
2023-08-01T16:48:12.422Z,94.7
2023-08-01T16:49:53.056Z,94.1
2023-08-01T16:51:33.493Z,94.6
2023-08-01T16:53:13.957Z,94.7
2023-08-01T16:54:54.426Z,94.9
2023-08-01T16:56:34.901Z,94.5
2023-08-01T16:58:15.417Z,94.4
2023-08-01T16:59:55.980Z,94.9
2023-08-01T17:01:36.439Z,94
2023-08-01T17:03:16.981Z,93.9
2023-08-01T17:04:57.552Z,94.9
2023-08-01T17:06:38.103Z,92.2
2023-08-01T17:08:19.287Z,92.6
2023-08-01T17:09:59.730Z,92.1
2023-08-01T17:11:40.223Z,92.2
2023-08-01T17:13:20.656Z,91.6
2023-08-01T17:15:01.342Z,91.4
2023-08-01T17:16:42.586Z,91.4
2023-08-01T17:18:23.976Z,90.8
2023-08-01T17:20:04.410Z,90.1
2023-08-01T17:21:44.978Z,90.4
2023-08-01T17:23:25.431Z,90.3
2023-08-01T17:25:05.884Z,90.6
2023-08-01T17:26:46.496Z,91.1
2023-08-01T17:28:26.898Z,91.3
2023-08-01T17:30:07.356Z,91.3
2023-08-01T17:31:47.820Z,90.8
2023-08-01T17:33:28.378Z,91.1
2023-08-01T17:35:08.932Z,91.2
2023-08-01T17:36:49.394Z,90.5
2023-08-01T17:38:29.839Z,91.2
2023-08-01T17:40:10.354Z,90.8
2023-08-01T17:43:48.301Z,89.6
2023-08-01T17:45:28.874Z,90.4
2023-08-01T17:47:09.391Z,90.7
2023-08-01T17:48:49.882Z,90.9
2023-08-01T17:50:30.356Z,91.5
2023-08-01T17:52:10.804Z,91.9
2023-08-01T17:53:51.255Z,92
2023-08-01T17:55:31.703Z,92.2
2023-08-01T17:57:12.285Z,92.7
2023-08-01T17:58:52.717Z,92.9
2023-08-01T18:00:33.284Z,93
2023-08-01T18:02:13.907Z,93.2
2023-08-01T18:03:54.493Z,93.8
2023-08-01T18:05:34.964Z,94.4
2023-08-01T18:07:15.511Z,94.3
2023-08-01T18:08:56.278Z,94.4
2023-08-01T18:10:36.779Z,94
2023-08-01T18:12:17.307Z,93.5
2023-08-01T18:13:57.968Z,93.3
2023-08-01T18:15:38.398Z,93.3
2023-08-01T18:17:18.990Z,92.7
2023-08-01T18:18:59.536Z,92.8
2023-08-01T18:20:39.967Z,92.7
2023-08-01T18:22:20.485Z,92.3
2023-08-01T18:24:00.981Z,92.8
2023-08-01T18:25:41.444Z,92.3
2023-08-01T18:27:21.984Z,92.5
2023-08-01T18:29:02.462Z,92.3
2023-08-01T18:30:43.070Z,92.2
2023-08-01T18:32:23.627Z,92.4
2023-08-01T18:34:04.119Z,92.4
2023-08-01T18:35:44.599Z,92.6
2023-08-01T18:37:25.074Z,92.1
2023-08-01T18:39:06.220Z,92.2
2023-08-01T18:40:47.070Z,92.5
2023-08-01T18:42:27.670Z,92.7
2023-08-01T18:44:08.102Z,92.6
2023-08-01T18:45:48.622Z,92.5
2023-08-01T18:47:29.197Z,92.5
2023-08-01T18:49:09.857Z,93.3
2023-08-01T18:50:50.310Z,92.9
2023-08-01T18:52:30.790Z,92.9
2023-08-01T18:54:11.226Z,92.5
2023-08-01T18:55:51.707Z,92.6
2023-08-01T18:57:32.202Z,92.7
2023-08-01T18:59:12.708Z,93.6
2023-08-01T19:00:53.188Z,92.7
2023-08-01T19:02:33.898Z,92.7
2023-08-01T19:04:14.376Z,92.9
2023-08-01T19:05:54.920Z,93.7
2023-08-01T19:07:35.494Z,92.8
2023-08-01T19:09:22.459Z,93.2
2023-08-01T19:11:03.015Z,92.8
2023-08-01T19:12:43.542Z,92.6
2023-08-01T19:14:23.973Z,92.7
2023-08-01T19:16:04.499Z,93.5
2023-08-01T19:17:45.193Z,93.1
2023-08-01T19:19:25.748Z,93.3
2023-08-01T19:21:06.218Z,92.7
2023-08-01T19:22:47.118Z,92.8
2023-08-01T19:24:30.508Z,93.1
2023-08-01T19:26:11.015Z,92.8
2023-08-01T19:27:51.529Z,92.7
2023-08-01T19:29:31.992Z,93
2023-08-01T19:31:29.356Z,93
2023-08-01T19:33:09.831Z,92.6
2023-08-01T19:34:50.448Z,92.9
2023-08-01T19:36:31.147Z,92.3
2023-08-01T19:38:11.658Z,93
2023-08-01T19:39:52.373Z,92.7
2023-08-01T19:41:32.876Z,92.9
2023-08-01T19:43:13.376Z,92.8
2023-08-01T19:44:53.793Z,93
2023-08-01T19:46:34.432Z,92.8
2023-08-01T19:48:15.122Z,92.4
2023-08-01T19:49:55.566Z,92.7
2023-08-01T19:51:36.016Z,92.6
2023-08-01T19:53:16.486Z,93
2023-08-01T19:54:57.035Z,92.7
2023-08-01T19:56:37.487Z,92.5
2023-08-01T19:58:18.091Z,92.7
2023-08-01T19:59:58.597Z,92.8
2023-08-01T20:01:39.127Z,92.3
2023-08-01T20:03:20.158Z,92.1
2023-08-01T20:05:00.982Z,92.4
2023-08-01T20:06:42.165Z,92.3
2023-08-01T20:08:23.350Z,92
2023-08-01T20:10:03.780Z,92
2023-08-01T20:11:44.306Z,92
2023-08-01T20:13:24.848Z,92.1
2023-08-01T20:15:05.273Z,92.4
2023-08-01T20:16:45.747Z,92.7
2023-08-01T20:18:26.173Z,92.2
2023-08-01T20:20:06.627Z,92.2
2023-08-01T20:21:47.116Z,92.7
2023-08-01T20:23:27.638Z,92.3
2023-08-01T20:25:08.473Z,92.2
2023-08-01T20:26:49.024Z,92.5
2023-08-01T20:28:29.542Z,92.5
2023-08-01T20:30:09.977Z,92.6
2023-08-01T20:31:50.596Z,92.5
2023-08-01T20:33:31.203Z,92.2
2023-08-01T20:35:11.644Z,92.4
2023-08-01T20:36:52.336Z,92.4
2023-08-01T20:38:32.827Z,92.4
2023-08-01T20:40:13.366Z,92.3
2023-08-01T20:41:53.900Z,91.9
2023-08-01T20:43:34.383Z,92.1
2023-08-01T20:45:14.838Z,91.8
2023-08-01T20:46:55.360Z,91.8
2023-08-01T20:48:35.954Z,91.7
2023-08-01T20:50:16.492Z,92.2
2023-08-01T20:51:57.021Z,92
2023-08-01T20:53:37.626Z,92.1
2023-08-01T20:55:18.157Z,92.2
2023-08-01T20:56:58.788Z,91.5
2023-08-01T20:58:39.290Z,91.4
2023-08-01T21:00:19.721Z,91.4
2023-08-01T21:02:02.884Z,91.3
2023-08-01T21:03:43.737Z,91.7
2023-08-01T21:05:24.361Z,91.4
2023-08-01T21:07:04.917Z,91.7
2023-08-01T21:09:04.628Z,91.8
2023-08-01T21:10:45.901Z,91.8
2023-08-01T21:12:26.350Z,91.8
2023-08-01T21:14:06.965Z,91.8
2023-08-01T21:15:47.472Z,91.8
2023-08-01T21:17:28.124Z,91.7
2023-08-01T21:19:08.735Z,91.7
2023-08-01T21:20:49.460Z,92
2023-08-01T21:21:06.256Z,92.1
2023-08-01T21:22:46.723Z,91.8
2023-08-01T21:24:27.173Z,91.7
2023-08-01T21:26:07.968Z,91.9
2023-08-01T21:27:48.606Z,92
2023-08-01T21:29:29.069Z,91.7
2023-08-01T21:31:13.844Z,91.7
2023-08-01T21:32:54.633Z,91.4
2023-08-01T21:34:35.320Z,91.6
2023-08-01T21:36:15.808Z,91.6
2023-08-01T21:37:56.242Z,91.4
2023-08-01T21:39:36.682Z,91.5
2023-08-01T21:41:17.203Z,91.6
2023-08-01T21:42:57.710Z,91.8
2023-08-01T21:44:38.382Z,91.8
2023-08-01T21:46:19.293Z,91.6
2023-08-01T21:47:59.775Z,91.7
2023-08-01T21:49:40.346Z,91.5
2023-08-01T21:51:20.803Z,91.5
2023-08-01T21:53:01.246Z,91.6
2023-08-01T21:54:41.712Z,91.4
2023-08-01T21:56:22.297Z,91.5
2023-08-01T21:58:02.714Z,91.8
2023-08-01T21:59:43.204Z,91.2
2023-08-01T22:01:23.844Z,91.2
2023-08-01T22:03:04.627Z,91.4
2023-08-01T22:04:45.272Z,91.4
2023-08-01T22:06:25.819Z,91.4
2023-08-01T22:08:06.367Z,91.5
2023-08-01T22:09:46.839Z,91.2
2023-08-01T22:11:27.285Z,91.6
2023-08-01T22:13:07.757Z,91.3
2023-08-01T22:14:48.251Z,91.1
2023-08-01T22:16:28.720Z,91.1
2023-08-01T22:18:09.442Z,91.1
2023-08-01T22:19:50.094Z,90.8
2023-08-01T22:21:30.593Z,90.8
2023-08-01T22:23:11.187Z,90.9
2023-08-01T22:24:51.714Z,91.1
2023-08-01T22:26:32.318Z,91.2
2023-08-01T22:28:13.043Z,91
2023-08-01T22:29:54.183Z,90.8
2023-08-01T22:31:35.595Z,91
2023-08-01T22:33:16.339Z,91.1
2023-08-01T22:34:57.051Z,90.9
2023-08-01T22:36:37.872Z,91.1
2023-08-01T22:38:18.696Z,90.8
2023-08-01T22:39:59.134Z,91.2